Aviation Digital Data Service (ADDS)

Output produced by METARs form (1432 UTC 05 August 2021)
found at http://aviationweather.gov/metar/data/
 
KVNY 051137Z 0512/0612 VRB03KT P6SM SKC 
     FM052100 14008KT P6SM SKC 
     FM060200 VRB03KT P6SM SKC 
     FM060500 12005KT P6SM SKC